Terminal Aerodrome Forecast
Issued by NWS Charleston, WV

Current Version | Previous Version | Text Only | Print | Product List | Glossary Off
Versions: 1 2 3 4 5 6 7 8 9 10 11 12 13 14 15 16 17 18 19 20 21 22

000
FTUS41 KRLX 241100
TAFBKW
TAF
KBKW 241121Z 2412/2512 32008KT 2SM -SN BR OVC002
      TEMPO 2413/2415 1SM -SN OVC004
     FM241500 31008KT 3SM -SN OVC008
     FM241600 31008G18KT P6SM BKN020
     FM241800 28010G18KT P6SM SCT020
     FM250300 28012G20KT P6SM BKN012=

USA.gov is the U.S. government's official web portal to all federal, state and local government web resources and services.